Terminal Aerodrome Forecast
Issued by NWS Cleveland, OH

Home | Current Version | Previous Version | Graphics & Text | Print | Product List | Glossary On
Versions: 1 2 3 4 5 6 7 8 9 10 11 12 13 14 15
000
FTUS41 KCLE 061138
TAFCAK
TAF
KCAK 061138Z 0612/0712 VRB04KT P6SM VCSH BKN040 OVC150
     FM061600 21004KT P6SM VCSH SCT050 BKN100
     FM062100 21004KT P6SM SCT100 BKN250
     FM070000 19004KT P6SM SKC=

USA.gov is the U.S. government's official web portal to all federal, state and local government web resources and services.